Time;durP1;ratioP1;P1;durP2;ratioP2;P2;SDS_P1;SDS_P2;PMS_P1;PMS_P2;Temp;Humidity;BMP_temperature;BMP_pressure;BME280_temperature;BME280_humidity;BME280_pressure;Samples;Min_cycle;Max_cycle;Signal;HPM_P1;HPM_P2
2020/12/05 00:01:56;;;;;;;49.83;31.23;;;;;;;6.93;100.00;96530.13;5094740;28;20192;-93
2020/12/05 00:04:22;;;;;;;47.53;31.53;;;;;;;6.97;100.00;96528.94;5095170;28;20196;-92
2020/12/05 00:06:49;;;;;;;55.67;33.67;;;;;;;6.89;100.00;96535.66;5094619;28;20274;-90
2020/12/05 00:09:16;;;;;;;50.77;31.77;;;;;;;6.88;100.00;96536.59;5094906;28;20255;-89
2020/12/05 00:11:44;;;;;;;63.00;35.17;;;;;;;6.95;100.00;96528.22;5095303;28;20192;-89
2020/12/05 00:14:11;;;;;;;62.30;34.67;;;;;;;6.90;100.00;96529.47;5094794;28;20721;-90
2020/12/05 00:16:37;;;;;;;52.03;30.00;;;;;;;6.83;100.00;96537.94;5094587;28;20718;-90
2020/12/05 00:19:04;;;;;;;55.37;33.17;;;;;;;6.90;100.00;96539.91;5094353;28;20239;-89
2020/12/05 00:21:31;;;;;;;68.93;36.90;;;;;;;6.90;100.00;96537.28;5094491;28;20245;-90
2020/12/05 00:23:59;;;;;;;67.07;40.77;;;;;;;6.87;100.00;96541.94;5094970;28;20574;-90
2020/12/05 00:26:26;;;;;;;68.03;35.20;;;;;;;6.93;100.00;96548.44;5094625;28;20192;-90
2020/12/05 00:28:54;;;;;;;57.80;33.27;;;;;;;6.93;100.00;96549.28;5094336;28;20215;-90
2020/12/05 00:31:21;;;;;;;70.83;36.63;;;;;;;6.94;100.00;96552.72;5094207;28;20192;-90
2020/12/05 00:33:50;;;;;;;54.50;33.17;;;;;;;6.88;100.00;96551.44;5094247;28;20192;-89
2020/12/05 00:36:17;;;;;;;56.43;33.87;;;;;;;6.81;100.00;96558.97;5093505;28;20657;-91
2020/12/05 00:38:45;;;;;;;57.87;31.83;;;;;;;6.89;100.00;96556.56;5093654;28;20235;-90
2020/12/05 00:41:17;;;;;;;70.67;37.53;;;;;;;6.94;100.00;96555.34;5094150;28;20192;-89
2020/12/05 00:43:44;;;;;;;52.63;32.10;;;;;;;7.00;100.00;96560.06;5093949;28;20192;-89
2020/12/05 00:46:12;;;;;;;53.40;31.17;;;;;;;6.93;100.00;96556.25;5094072;28;20211;-90
2020/12/05 00:48:39;;;;;;;50.47;29.07;;;;;;;6.91;100.00;96564.25;5093727;28;20220;-90
2020/12/05 00:51:06;;;;;;;52.17;30.67;;;;;;;6.95;100.00;96562.19;5094211;28;20597;-90
2020/12/05 00:53:33;;;;;;;51.57;29.33;;;;;;;6.97;100.00;96566.34;5093873;28;20188;-89
2020/12/05 00:55:59;;;;;;;48.60;31.40;;;;;;;6.99;100.00;96568.81;5094153;28;20198;-90
2020/12/05 00:58:26;;;;;;;49.57;30.87;;;;;;;7.01;100.00;96566.94;5093690;28;20200;-90
2020/12/05 01:00:53;;;;;;;55.83;30.77;;;;;;;6.95;100.00;96559.59;5093832;28;20208;-91
2020/12/05 01:03:21;;;;;;;52.03;30.57;;;;;;;6.96;100.00;96564.69;5094044;28;20644;-91
2020/12/05 01:05:48;;;;;;;54.47;28.37;;;;;;;6.90;100.00;96568.66;5093609;28;20202;-91
2020/12/05 01:08:14;;;;;;;52.23;33.00;;;;;;;6.91;100.00;96572.91;5093538;28;20197;-90
2020/12/05 01:10:41;;;;;;;57.43;34.50;;;;;;;6.87;100.00;96570.69;5093957;28;20220;-89
2020/12/05 01:13:08;;;;;;;54.03;32.07;;;;;;;6.89;100.00;96564.38;5093649;28;20192;-91
2020/12/05 01:15:35;;;;;;;53.57;29.00;;;;;;;6.96;100.00;96564.69;5093568;28;20192;-90
2020/12/05 01:18:02;;;;;;;57.43;30.27;;;;;;;6.91;100.00;96561.63;5093599;28;20222;-90
2020/12/05 01:20:30;;;;;;;54.33;30.27;;;;;;;6.90;100.00;96560.00;5093790;28;20199;-90
2020/12/05 01:22:57;;;;;;;50.03;28.07;;;;;;;6.86;100.00;96555.97;5093640;28;20229;-90
2020/12/05 01:25:23;;;;;;;50.53;27.73;;;;;;;6.81;100.00;96558.97;5094058;28;20188;-90
2020/12/05 01:27:50;;;;;;;47.20;28.93;;;;;;;6.75;100.00;96559.47;5093575;28;20267;-91
2020/12/05 01:30:17;;;;;;;49.97;28.30;;;;;;;6.69;100.00;96561.78;5093336;28;20216;-91
2020/12/05 01:32:44;;;;;;;48.03;27.73;;;;;;;6.71;100.00;96565.91;5093505;28;20196;-90
2020/12/05 01:35:11;;;;;;;49.03;28.30;;;;;;;6.84;100.00;96566.53;5093280;28;20199;-89
2020/12/05 01:37:39;;;;;;;50.97;29.43;;;;;;;6.83;100.00;96567.50;5093283;28;20202;-90
2020/12/05 01:40:06;;;;;;;51.63;27.50;;;;;;;6.76;100.00;96574.19;5093215;28;20188;-88
2020/12/05 01:42:32;;;;;;;52.67;30.57;;;;;;;6.90;100.00;96566.03;5093272;28;20189;-90
2020/12/05 01:44:59;;;;;;;58.63;31.53;;;;;;;6.94;100.00;96571.00;5093075;28;20200;-90
2020/12/05 01:47:28;;;;;;;45.70;29.27;;;;;;;6.91;100.00;96562.47;5093139;28;20257;-90
2020/12/05 01:49:57;;;;;;;48.67;28.07;;;;;;;6.91;100.00;96556.41;5096706;28;20224;-90
2020/12/05 01:52:24;;;;;;;49.80;29.00;;;;;;;6.91;100.00;96554.63;5097357;28;20199;-89
2020/12/05 01:54:52;;;;;;;45.30;29.27;;;;;;;6.81;100.00;96550.28;5097397;28;20231;-89
2020/12/05 01:57:21;;;;;;;46.33;28.53;;;;;;;6.74;100.00;96549.16;5097460;28;20277;-90
2020/12/05 01:59:48;;;;;;;49.00;27.63;;;;;;;6.75;100.00;96558.63;5097157;28;20192;-90
2020/12/05 02:02:16;;;;;;;46.23;29.53;;;;;;;6.88;100.00;96561.88;5097186;28;20235;-90
2020/12/05 02:04:56;;;;;;;48.47;28.80;;;;;;;6.88;100.00;96567.94;5097309;28;20257;-91
2020/12/05 02:07:35;;;;;;;44.30;28.73;;;;;;;6.94;100.00;96566.59;5097077;28;20184;-90
2020/12/05 02:10:09;;;;;;;47.07;32.03;;;;;;;6.94;100.00;96569.22;5097058;28;20204;-90
2020/12/05 02:12:45;;;;;;;58.30;36.83;;;;;;;6.87;100.00;96565.47;5097352;28;20678;-89
2020/12/05 02:15:20;;;;;;;50.30;34.60;;;;;;;6.88;100.00;96574.94;5097113;28;20180;-89
2020/12/05 02:17:58;;;;;;;45.43;29.40;;;;;;;7.04;100.00;96582.34;5097000;28;20240;-90
2020/12/05 02:20:26;;;;;;;47.73;29.07;;;;;;;6.95;100.00;96575.28;5097240;28;20238;-91
2020/12/05 02:22:53;;;;;;;51.67;30.83;;;;;;;6.87;100.00;96583.75;5096908;28;20672;-90
2020/12/05 02:25:21;;;;;;;43.67;29.13;;;;;;;7.05;100.00;96584.81;5097030;28;20204;-89
2020/12/05 02:27:48;;;;;;;49.63;30.37;;;;;;;6.91;100.00;96588.59;5096818;28;20192;-91
2020/12/05 02:30:15;;;;;;;43.30;28.03;;;;;;;7.12;100.00;96590.38;5096727;28;20222;-90
2020/12/05 02:32:42;;;;;;;47.80;30.13;;;;;;;7.10;100.00;96592.25;5097052;28;20223;-90
2020/12/05 02:35:09;;;;;;;48.67;31.30;;;;;;;7.13;100.00;96598.09;5099463;28;20223;-90
2020/12/05 02:37:41;;;;;;;44.53;30.03;;;;;;;7.14;100.00;96589.28;5099691;28;20196;-90
2020/12/05 02:40:10;;;;;;;49.67;31.30;;;;;;;7.11;100.00;96591.31;5097656;28;20184;-90
2020/12/05 02:42:38;;;;;;;47.27;29.33;;;;;;;7.20;100.00;96582.69;5096485;28;20188;-89
2020/12/05 02:45:10;;;;;;;45.73;26.93;;;;;;;7.07;100.00;96582.09;5096398;28;20199;-90
2020/12/05 02:47:36;;;;;;;47.10;29.80;;;;;;;7.05;100.00;96579.59;5096811;28;20188;-89
2020/12/05 02:50:05;;;;;;;45.00;28.57;;;;;;;7.12;100.00;96585.13;5096348;28;20222;-90
2020/12/05 02:52:32;;;;;;;48.67;29.63;;;;;;;7.09;100.00;96582.78;5096638;28;20188;-91
2020/12/05 02:54:59;;;;;;;46.93;28.67;;;;;;;7.20;100.00;96582.69;5096220;28;20267;-90
2020/12/05 02:57:26;;;;;;;49.97;29.30;;;;;;;7.26;100.00;96579.56;5096331;28;20249;-90
2020/12/05 02:59:53;;;;;;;44.83;28.67;;;;;;;7.13;100.00;96576.31;5095450;28;20193;-91
2020/12/05 03:02:20;;;;;;;50.77;30.43;;;;;;;7.13;100.00;96574.56;5096036;28;20196;-91
2020/12/05 03:04:47;;;;;;;53.40;30.17;;;;;;;7.24;100.00;96563.19;5096173;28;20192;-91
2020/12/05 03:07:15;;;;;;;49.27;29.93;;;;;;;7.28;100.00;96569.81;5095885;28;20249;-90
2020/12/05 03:09:42;;;;;;;49.17;29.03;;;;;;;7.21;100.00;96567.84;5095903;28;20227;-90
2020/12/05 03:12:09;;;;;;;46.53;28.67;;;;;;;7.24;100.00;96571.03;5096078;28;20246;-91
2020/12/05 03:14:36;;;;;;;44.53;28.57;;;;;;;7.24;100.00;96576.28;5078698;28;20203;-89
2020/12/05 03:17:04;;;;;;;48.63;28.60;;;;;;;7.16;100.00;96573.47;5090527;28;20231;-90
2020/12/05 03:19:30;;;;;;;46.67;28.57;;;;;;;7.17;100.00;96564.69;5094601;28;20250;-90
2020/12/05 03:21:57;;;;;;;48.57;27.87;;;;;;;7.12;100.00;96572.06;5094568;28;20212;-92
2020/12/05 03:24:36;;;;;;;47.60;29.33;;;;;;;7.21;100.00;96573.09;5095006;28;20239;-90
2020/12/05 03:27:03;;;;;;;48.00;29.53;;;;;;;7.26;100.00;96578.75;5091545;28;20193;-92
2020/12/05 03:29:30;;;;;;;42.80;28.10;;;;;;;7.24;100.00;96573.66;5087986;28;20227;-90
2020/12/05 03:31:59;;;;;;;45.37;29.53;;;;;;;7.20;100.00;96579.25;5075425;28;20625;-91
2020/12/05 03:34:27;;;;;;;40.93;26.13;;;;;;;7.21;100.00;96573.09;5074884;28;20196;-90
2020/12/05 03:37:23;;;;;;;47.63;29.23;;;;;;;7.18;100.00;96574.16;5074905;28;20233;-89
2020/12/05 03:39:50;;;;;;;44.53;29.60;;;;;;;7.09;100.00;96570.53;5074973;28;20205;-90
2020/12/05 03:42:17;;;;;;;47.67;28.87;;;;;;;7.10;100.00;96571.34;5074765;28;20197;-90
2020/12/05 03:44:50;;;;;;;45.83;29.40;;;;;;;7.03;100.00;96570.22;5078806;28;20628;-91
2020/12/05 03:47:20;;;;;;;44.73;28.10;;;;;;;7.01;100.00;96580.81;5074602;28;20219;-90
2020/12/05 03:49:51;;;;;;;49.53;29.87;;;;;;;6.97;100.00;96581.22;5074365;28;20229;-90
2020/12/05 03:52:18;;;;;;;37.93;27.70;;;;;;;6.98;100.00;96588.09;5074045;28;20201;-90
2020/12/05 03:54:45;;;;;;;41.83;27.33;;;;;;;6.99;100.00;96590.56;5073774;28;20237;-90
2020/12/05 03:57:20;;;;;;;44.10;26.83;;;;;;;7.08;100.00;96583.75;5074476;28;20189;-90
2020/12/05 03:59:47;;;;;;;37.03;26.43;;;;;;;7.09;100.00;96591.44;5074283;28;20196;-91
2020/12/05 04:02:20;;;;;;;95.43;56.37;;;;;;;7.05;100.00;96592.66;5074373;28;20204;-90
2020/12/05 04:04:47;;;;;;;74.60;46.73;;;;;;;7.07;100.00;96592.56;5075093;28;20250;-91
2020/12/05 04:07:15;;;;;;;48.07;30.77;;;;;;;7.22;100.00;96591.25;5074546;28;20284;-90
2020/12/05 04:09:42;;;;;;;45.30;33.40;;;;;;;7.16;100.00;96591.75;5074919;28;20700;-90
2020/12/05 04:12:08;;;;;;;46.60;32.17;;;;;;;7.09;100.00;96590.63;5072362;28;20250;-89
2020/12/05 04:14:41;;;;;;;39.30;26.27;;;;;;;7.20;100.00;96590.53;5074223;28;20199;-90
2020/12/05 04:17:20;;;;;;;40.40;27.03;;;;;;;7.33;100.00;96588.53;5073225;28;20224;-90
2020/12/05 04:19:49;;;;;;;35.20;25.60;;;;;;;7.49;100.00;96589.88;5094071;28;20196;-89
2020/12/05 04:22:16;;;;;;;34.70;25.77;;;;;;;7.41;100.00;96600.97;5093413;28;20261;-92
2020/12/05 04:24:49;;;;;;;41.10;25.77;;;;;;;7.46;100.00;96598.78;5093643;28;20246;-91
2020/12/05 04:27:16;;;;;;;37.83;26.77;;;;;;;7.41;100.00;96606.19;5093823;28;20200;-90
2020/12/05 04:29:50;;;;;;;36.97;27.00;;;;;;;7.45;100.00;96601.53;5094284;28;20307;-90
2020/12/05 04:32:29;;;;;;;39.77;27.83;;;;;;;7.45;100.00;96609.38;5093703;28;20193;-90
2020/12/05 04:35:08;;;;;;;38.33;26.43;;;;;;;7.41;100.00;96607.97;5093462;28;20214;-92
2020/12/05 04:37:35;;;;;;;37.93;27.80;;;;;;;7.46;100.00;96605.81;5094118;28;20235;-91
2020/12/05 04:43:13;;;;;;;38.27;29.33;;;;;;;7.46;100.00;96600.59;4966229;28;20621;-90
2020/12/05 04:45:40;;;;;;;44.50;30.40;;;;;;;7.38;100.00;96598.63;4973126;28;20189;-90
2020/12/05 04:48:07;;;;;;;37.23;25.43;;;;;;;7.36;100.00;96596.13;4973374;28;20204;-91
2020/12/05 04:50:35;;;;;;;36.97;25.13;;;;;;;7.42;100.00;96602.63;4974568;28;20237;-90
2020/12/05 04:53:11;;;;;;;36.00;25.23;;;;;;;7.34;100.00;96600.69;4973676;28;20299;-89
2020/12/05 04:55:41;;;;;;;41.33;27.60;;;;;;;7.39;100.00;96595.88;4973894;28;20302;-90
2020/12/05 05:06:00;;;;;;;52.37;35.83;;;;;;;7.46;100.00;96611.03;4925362;29;20240;-96
2020/12/05 05:08:28;;;;;;;54.83;35.27;;;;;;;7.39;100.00;96611.56;5095313;28;20185;-93
2020/12/05 05:11:08;;;;;;;52.57;34.67;;;;;;;7.32;100.00;96610.44;5091946;28;20225;-92
2020/12/05 05:13:50;;;;;;;40.93;27.17;;;;;;;7.43;100.00;96600.84;5094026;28;20596;-92
2020/12/05 05:16:17;;;;;;;39.13;28.07;;;;;;;7.46;100.00;96611.03;5095400;28;20247;-91
2020/12/05 05:18:44;;;;;;;47.50;31.40;;;;;;;7.48;100.00;96612.56;5095897;28;20226;-91
2020/12/05 05:21:34;;;;;;;48.80;34.03;;;;;;;7.44;100.00;96615.56;5095943;28;20201;-93
2020/12/05 05:24:10;;;;;;;45.40;33.33;;;;;;;7.45;100.00;96622.44;5094772;28;20220;-92
2020/12/05 05:26:37;;;;;;;35.27;27.30;;;;;;;7.45;100.00;96623.28;5094601;28;20186;-93
2020/12/05 05:29:05;;;;;;;41.17;27.30;;;;;;;7.49;100.00;96623.88;5092715;28;20251;-95
2020/12/05 05:31:47;;;;;;;34.13;27.17;;;;;;;7.51;100.00;96622.75;5074051;28;20189;-94
2020/12/05 05:34:20;;;;;;;43.63;29.97;;;;;;;7.43;100.00;96621.75;5073705;28;20181;-93
2020/12/05 05:36:48;;;;;;;48.73;33.07;;;;;;;7.54;100.00;96621.66;5073514;28;20307;-91
2020/12/05 05:39:17;;;;;;;42.77;28.80;;;;;;;7.54;100.00;96626.91;5074232;28;20654;-92
2020/12/05 05:41:49;;;;;;;46.40;33.70;;;;;;;7.54;100.00;96624.28;5076226;28;20205;-91
2020/12/05 05:44:18;;;;;;;62.03;40.23;;;;;;;7.54;100.00;96624.28;5075560;28;20618;-91
2020/12/05 05:46:47;;;;;;;45.00;33.37;;;;;;;7.60;100.00;96621.16;5076164;28;20219;-92
2020/12/05 05:49:16;;;;;;;47.60;33.00;;;;;;;7.61;100.00;96623.63;5076761;28;20259;-91
2020/12/05 05:51:46;;;;;;;45.50;32.30;;;;;;;7.63;100.00;96629.56;5075660;28;20185;-93
2020/12/05 05:54:15;;;;;;;40.70;29.57;;;;;;;7.67;100.00;96631.91;5073618;28;20231;-92
2020/12/05 05:57:07;;;;;;;48.50;32.77;;;;;;;7.66;100.00;96632.88;5073873;28;20709;-92
2020/12/05 05:59:36;;;;;;;48.47;31.13;;;;;;;7.67;100.00;96637.16;5073784;28;20225;-92
2020/12/05 06:02:04;;;;;;;50.73;36.50;;;;;;;7.57;100.00;96637.94;5073593;28;20688;-91
2020/12/05 06:04:33;;;;;;;43.90;29.30;;;;;;;7.73;100.00;96639.25;5074450;28;20236;-92
2020/12/05 06:07:02;;;;;;;47.07;33.67;;;;;;;7.76;100.00;96646.81;5073941;28;20193;-94
2020/12/05 06:09:42;;;;;;;50.57;34.70;;;;;;;7.74;100.00;96654.81;5074272;28;20221;-93
2020/12/05 06:12:11;;;;;;;53.83;37.90;;;;;;;7.74;100.00;96657.41;5075322;28;20274;-93
2020/12/05 06:14:43;;;;;;;52.53;37.00;;;;;;;7.60;100.00;96648.13;5074298;28;20193;-93
2020/12/05 06:17:10;;;;;;;48.27;33.70;;;;;;;7.62;100.00;96658.47;5073315;28;20197;-93
2020/12/05 06:19:40;;;;;;;70.17;48.20;;;;;;;7.69;100.00;96662.22;5073401;28;20221;-93
2020/12/05 06:22:20;;;;;;;89.60;61.90;;;;;;;7.71;100.00;96662.09;5074016;28;20227;-93
2020/12/05 06:24:54;;;;;;;54.37;39.80;;;;;;;7.76;100.00;96652.91;5073282;28;20213;-94
2020/12/05 06:27:23;;;;;;;46.90;33.53;;;;;;;7.67;100.00;96656.28;5073304;28;20203;-92
2020/12/05 06:29:50;;;;;;;45.00;32.73;;;;;;;7.73;100.00;96660.19;5073620;28;20221;-93
2020/12/05 06:32:40;;;;;;;46.17;32.17;;;;;;;7.88;100.00;96658.84;5073090;28;20197;-93
2020/12/05 06:35:31;;;;;;;52.47;36.03;;;;;;;7.92;100.00;96651.56;5073806;28;20712;-93
2020/12/05 06:37:58;;;;;;;52.90;33.70;;;;;;;7.89;100.00;96664.91;5077342;28;20190;-94
2020/12/05 06:40:26;;;;;;;41.97;31.43;;;;;;;7.84;100.00;96666.13;5076871;28;20201;-93
2020/12/05 06:42:55;;;;;;;42.23;29.87;;;;;;;7.89;100.00;96670.16;5076980;28;20239;-94
2020/12/05 06:45:39;;;;;;;40.93;28.97;;;;;;;7.96;100.00;96674.72;5076947;28;20197;-92
2020/12/05 06:48:32;;;;;;;42.87;30.80;;;;;;;7.97;100.00;96680.81;5076746;28;20255;-93
2020/12/05 06:50:59;;;;;;;48.20;31.70;;;;;;;7.96;100.00;96679.94;5076954;28;20279;-93
2020/12/05 06:53:31;;;;;;;46.90;30.83;;;;;;;7.93;100.00;96680.25;5076559;28;20209;-93
2020/12/05 06:55:59;;;;;;;41.50;31.10;;;;;;;8.00;100.00;96680.50;5076627;28;20229;-93
2020/12/05 06:58:27;;;;;;;41.47;29.87;;;;;;;7.98;100.00;96677.22;5076376;28;20293;-92
2020/12/05 07:00:55;;;;;;;41.30;31.33;;;;;;;7.95;100.00;96685.31;5076119;28;20289;-94
2020/12/05 07:03:27;;;;;;;47.50;31.87;;;;;;;7.97;100.00;96678.19;5077384;28;20575;-94
2020/12/05 07:05:54;;;;;;;42.87;30.30;;;;;;;8.04;100.00;96668.84;5077129;28;20669;-94
2020/12/05 07:08:30;;;;;;;46.77;33.10;;;;;;;8.00;100.00;96670.03;5076767;28;20590;-94
2020/12/05 07:11:03;;;;;;;45.60;31.27;;;;;;;8.08;100.00;96670.22;5076498;28;20781;-93
2020/12/05 07:13:39;;;;;;;39.37;28.97;;;;;;;8.09;100.00;96672.69;5076390;28;20204;-93
2020/12/05 07:16:13;;;;;;;44.90;31.70;;;;;;;8.10;100.00;96678.75;5076769;28;20281;-93
2020/12/05 07:18:41;;;;;;;41.73;27.97;;;;;;;8.21;100.00;96672.59;5076007;28;20649;-93
2020/12/05 07:21:09;;;;;;;44.87;29.70;;;;;;;8.22;100.00;96674.25;5077311;28;20213;-94
2020/12/05 07:23:37;;;;;;;42.70;30.93;;;;;;;8.23;100.00;96683.75;5079856;28;20197;-93
2020/12/05 07:26:06;;;;;;;38.17;26.67;;;;;;;8.20;100.00;96682.22;5079081;28;20197;-94
2020/12/05 07:28:33;;;;;;;38.13;28.30;;;;;;;8.28;100.00;96695.50;5077964;28;20213;-92
2020/12/05 07:31:01;;;;;;;40.60;28.97;;;;;;;8.32;100.00;96686.41;5079213;28;20236;-93
2020/12/05 07:33:29;;;;;;;38.00;28.37;;;;;;;8.31;100.00;96690.00;5078981;28;20688;-92
2020/12/05 07:36:02;;;;;;;38.93;29.67;;;;;;;8.36;100.00;96694.00;5079036;28;20243;-92
2020/12/05 07:38:31;;;;;;;40.17;28.27;;;;;;;8.27;100.00;96698.25;5077767;28;20727;-92
2020/12/05 07:40:58;;;;;;;38.37;26.93;;;;;;;8.32;100.00;96701.31;5077144;28;20285;-93
2020/12/05 07:43:26;;;;;;;40.23;29.17;;;;;;;8.36;100.00;96700.06;5077685;28;20624;-93
2020/12/05 07:46:02;;;;;;;40.20;27.67;;;;;;;8.36;100.00;96707.09;5077700;28;20197;-92
2020/12/05 07:48:29;;;;;;;39.83;27.60;;;;;;;8.34;100.00;96696.75;5077254;28;20240;-92
2020/12/05 07:50:56;;;;;;;45.37;29.07;;;;;;;8.45;100.00;96708.94;5076580;28;20598;-93
2020/12/05 07:53:25;;;;;;;42.23;31.67;;;;;;;8.46;100.00;96715.84;5076475;28;20243;-93
2020/12/05 07:55:53;;;;;;;40.77;28.17;;;;;;;8.53;100.00;96719.56;5076049;28;20293;-93
2020/12/05 07:58:20;;;;;;;35.40;26.03;;;;;;;8.54;100.00;96716.81;5077948;28;20200;-93
2020/12/05 08:00:49;;;;;;;42.73;31.80;;;;;;;8.49;100.00;96724.25;5091085;28;20189;-93
2020/12/05 08:04:05;;;;;;;41.40;28.50;;;;;;;8.55;100.00;96728.94;5096092;28;20197;-93
2020/12/05 08:06:53;;;;;;;37.07;28.73;;;;;;;8.55;100.00;96728.13;5055665;28;20206;-93
2020/12/05 08:09:30;;;;;;;42.17;27.00;;;;;;;8.60;100.00;96733.78;5093139;28;20228;-93
2020/12/05 08:11:58;;;;;;;35.13;26.73;;;;;;;8.53;100.00;96732.69;5097001;28;20246;-93
2020/12/05 08:14:27;;;;;;;39.80;29.30;;;;;;;8.58;100.00;96740.94;5097338;28;20223;-92
2020/12/05 08:16:57;;;;;;;37.90;27.97;;;;;;;8.52;100.00;96749.34;5098506;28;20193;-91
2020/12/05 08:19:24;;;;;;;38.77;29.27;;;;;;;8.55;100.00;96742.03;5096975;28;20185;-91
2020/12/05 08:21:52;;;;;;;42.10;30.23;;;;;;;8.58;100.00;96749.63;5096805;28;20193;-92
2020/12/05 08:24:19;;;;;;;39.17;28.90;;;;;;;8.50;100.00;96753.91;5098115;28;20257;-92
2020/12/05 08:26:50;;;;;;;38.10;29.57;;;;;;;8.57;100.00;96758.47;5097264;28;20200;-92
2020/12/05 08:29:18;;;;;;;43.50;32.53;;;;;;;8.60;100.00;96757.38;5096360;28;20169;-92
2020/12/05 08:31:46;;;;;;;43.23;29.20;;;;;;;8.54;100.00;96748.25;5096441;28;20252;-91
2020/12/05 08:34:14;;;;;;;36.47;27.03;;;;;;;8.60;100.00;96756.56;5097750;28;20185;-92
2020/12/05 08:36:44;;;;;;;39.17;25.70;;;;;;;8.61;100.00;96756.41;5096371;28;20303;-93
2020/12/05 08:39:13;;;;;;;35.00;27.60;;;;;;;8.68;100.00;96759.31;5095056;28;20215;-93
2020/12/05 08:41:45;;;;;;;35.57;26.57;;;;;;;8.65;100.00;96765.66;5095803;28;20185;-91
2020/12/05 08:44:14;;;;;;;34.53;26.63;;;;;;;8.74;100.00;96758.78;5095881;28;20180;-92
2020/12/05 08:46:42;;;;;;;33.67;26.13;;;;;;;8.81;100.00;96752.88;5095220;28;20259;-90
2020/12/05 08:49:17;;;;;;;33.77;26.73;;;;;;;8.78;100.00;96750.50;5096302;28;20288;-92
2020/12/05 08:51:48;;;;;;;37.37;25.53;;;;;;;8.87;100.00;96745.41;5098557;28;20189;-91
2020/12/05 08:54:16;;;;;;;36.27;25.53;;;;;;;8.87;100.00;96745.41;5098555;28;20255;-92
2020/12/05 08:56:43;;;;;;;36.47;25.50;;;;;;;8.86;100.00;96747.19;5098127;28;20200;-90
2020/12/05 08:59:11;;;;;;;39.97;26.00;;;;;;;8.89;100.00;96731.22;5097943;28;20223;-92
2020/12/05 09:01:40;;;;;;;36.03;26.50;;;;;;;8.93;100.00;96737.00;5098674;28;20208;-90
2020/12/05 09:04:07;;;;;;;35.17;24.53;;;;;;;8.90;100.00;96730.25;5098776;28;20199;-91
2020/12/05 09:06:35;;;;;;;35.30;27.30;;;;;;;8.98;100.00;96740.06;5098695;28;20200;-92
2020/12/05 09:09:01;;;;;;;32.90;26.27;;;;;;;9.03;100.00;96740.47;5098414;28;20196;-92
2020/12/05 09:11:28;;;;;;;34.80;26.10;;;;;;;9.05;100.00;96731.50;5098687;28;20201;-93
2020/12/05 09:13:55;;;;;;;37.33;26.87;;;;;;;9.13;100.00;96728.19;5098693;28;20245;-92
2020/12/05 09:16:33;;;;;;;34.87;25.80;;;;;;;9.15;100.00;96723.63;5098394;28;20245;-93
2020/12/05 09:18:59;;;;;;;33.20;25.33;;;;;;;9.28;100.00;96720.72;5097437;28;20169;-93
2020/12/05 09:21:26;;;;;;;45.50;28.17;;;;;;;9.25;100.00;96728.88;5098211;28;20188;-93
2020/12/05 09:24:02;;;;;;;42.97;28.67;;;;;;;9.39;100.00;96733.72;5098141;28;20177;-92
2020/12/05 09:26:29;;;;;;;50.17;28.67;;;;;;;9.51;100.00;96731.75;5098095;28;20169;-92
2020/12/05 09:28:56;;;;;;;42.80;27.00;;;;;;;9.56;100.00;96726.91;5096202;28;20201;-92
2020/12/05 09:31:23;;;;;;;39.47;28.90;;;;;;;9.53;100.00;96728.03;5095567;28;20215;-92
2020/12/05 09:33:50;;;;;;;38.30;27.50;;;;;;;9.48;100.00;96727.59;5090643;28;20193;-92
2020/12/05 09:36:17;;;;;;;34.73;25.77;;;;;;;9.49;100.00;96736.28;5088167;28;20284;-92
2020/12/05 09:38:44;;;;;;;36.07;26.40;;;;;;;9.58;100.00;96732.84;5081988;28;20200;-91
2020/12/05 09:41:12;;;;;;;39.67;25.37;;;;;;;9.61;100.00;96735.19;5083526;28;20193;-91
2020/12/05 09:43:38;;;;;;;32.63;23.97;;;;;;;9.63;100.00;96735.88;5081165;28;20219;-92
2020/12/05 09:46:05;;;;;;;35.57;27.37;;;;;;;9.65;100.00;96728.69;5076989;28;20570;-92
2020/12/05 09:48:32;;;;;;;37.27;25.63;;;;;;;9.62;100.00;96734.19;5074741;28;20204;-91
2020/12/05 09:50:59;;;;;;;39.93;25.83;;;;;;;9.62;100.00;96730.75;5074123;28;20217;-92
2020/12/05 09:53:26;;;;;;;40.50;28.20;;;;;;;9.62;100.00;96728.94;5074931;28;20193;-92
2020/12/05 09:55:53;;;;;;;36.40;25.60;;;;;;;9.56;100.00;96729.53;5075094;28;20232;-92
2020/12/05 09:58:21;;;;;;;35.73;25.60;;;;;;;9.58;100.00;96722.34;5075796;28;20199;-93
2020/12/05 10:00:48;;;;;;;35.33;29.03;;;;;;;9.62;100.00;96728.94;5077261;28;20219;-92
2020/12/05 10:03:14;;;;;;;29.27;23.47;;;;;;;9.70;100.00;96723.84;5077616;28;20278;-92
2020/12/05 10:05:41;;;;;;;45.13;28.87;;;;;;;9.76;100.00;96725.88;5075989;28;20221;-92
2020/12/05 10:08:09;;;;;;;33.23;25.50;;;;;;;9.81;100.00;96730.72;5077304;28;20197;-92
2020/12/05 10:10:36;;;;;;;34.20;23.77;;;;;;;9.75;100.00;96729.47;5078168;28;20224;-92
2020/12/05 10:13:03;;;;;;;36.27;25.87;;;;;;;9.64;100.00;96734.09;5078986;28;20201;-92
2020/12/05 10:15:30;;;;;;;33.23;23.70;;;;;;;9.69;100.00;96727.41;5077838;28;20205;-93
2020/12/05 10:17:57;;;;;;;34.93;25.07;;;;;;;9.71;100.00;96737.78;5081189;28;20251;-92
2020/12/05 10:20:24;;;;;;;30.07;23.90;;;;;;;9.69;100.00;96723.97;5080904;28;20201;-93
2020/12/05 10:22:51;;;;;;;32.30;25.13;;;;;;;9.71;100.00;96733.38;5085515;28;20197;-93
2020/12/05 10:25:18;;;;;;;35.10;25.83;;;;;;;9.77;100.00;96731.97;5087308;28;20220;-93
2020/12/05 10:27:45;;;;;;;31.37;25.73;;;;;;;9.81;100.00;96724.66;5085184;28;20185;-93
2020/12/05 10:30:12;;;;;;;44.97;33.90;;;;;;;9.81;100.00;96729.91;5079764;28;20589;-93
2020/12/05 10:32:40;;;;;;;38.60;28.40;;;;;;;9.84;100.00;96725.19;5078649;28;20209;-93
2020/12/05 10:35:09;;;;;;;36.27;28.83;;;;;;;9.93;100.00;96720.88;5079142;28;20209;-91
2020/12/05 10:37:35;;;;;;;42.10;29.27;;;;;;;9.95;100.00;96719.75;5078802;28;20201;-92
2020/12/05 10:40:03;;;;;;;41.37;27.90;;;;;;;9.94;100.00;96722.50;5078896;28;20579;-93
2020/12/05 10:42:30;;;;;;;46.00;30.57;;;;;;;9.95;100.00;96726.81;5078209;28;20193;-92
2020/12/05 10:44:57;;;;;;;37.17;24.53;;;;;;;9.92;100.00;96727.91;5079512;28;20201;-93
2020/12/05 10:47:23;;;;;;;29.30;24.60;;;;;;;9.88;100.00;96715.22;5080512;28;20267;-93
2020/12/05 10:49:51;;;;;;;37.40;26.97;;;;;;;9.89;100.00;96730.81;5079152;28;20260;-92
2020/12/05 10:52:18;;;;;;;35.90;26.97;;;;;;;9.82;100.00;96729.75;5078715;28;20261;-91
2020/12/05 10:54:45;;;;;;;33.13;26.93;;;;;;;9.79;100.00;96729.19;5077460;28;20290;-93
2020/12/05 10:57:12;;;;;;;35.30;27.27;;;;;;;9.76;100.00;96725.06;5076757;28;20209;-91
2020/12/05 10:59:39;;;;;;;30.07;24.43;;;;;;;9.72;100.00;96723.69;5077042;28;20215;-92
2020/12/05 11:02:06;;;;;;;35.87;25.63;;;;;;;9.72;100.00;96719.25;5077264;28;20224;-93
2020/12/05 11:04:33;;;;;;;28.90;21.50;;;;;;;9.75;100.00;96713.72;5077665;28;20645;-93
2020/12/05 11:07:01;;;;;;;37.87;24.03;;;;;;;9.67;100.00;96711.00;5077073;28;20658;-93
2020/12/05 11:09:27;;;;;;;29.93;22.47;;;;;;;9.61;100.00;96713.38;5076364;28;20197;-91
2020/12/05 11:11:54;;;;;;;29.30;22.60;;;;;;;9.62;100.00;96715.84;5081254;28;20193;-96
2020/12/05 11:14:52;;;;;;;;;;;;;;;;;;;;;
2020/12/05 11:17:19;;;;;;;30.33;21.10;;;;;;;9.62;100.00;96718.47;5079266;28;20279;-95
2020/12/05 11:19:46;;;;;;;32.60;24.00;;;;;;;9.64;100.00;96711.28;5081379;28;20189;-94
2020/12/05 11:22:17;;;;;;;34.87;27.40;;;;;;;9.61;100.00;96722.06;5081484;28;20208;-93
2020/12/05 11:24:44;;;;;;;29.90;25.10;;;;;;;9.59;100.00;96718.72;5079491;28;20201;-94
2020/12/05 11:27:11;;;;;;;31.20;24.27;;;;;;;9.64;100.00;96713.91;5079699;28;20197;-94
2020/12/05 11:29:38;;;;;;;35.37;26.70;;;;;;;9.74;100.00;96711.25;5082891;28;20255;-95
2020/12/05 11:32:05;;;;;;;33.97;23.30;;;;;;;9.71;100.00;96715.00;5077896;28;20730;-94
2020/12/05 11:34:32;;;;;;;29.23;21.43;;;;;;;9.70;100.00;96702.03;5076872;28;20230;-95
2020/12/05 11:36:58;;;;;;;30.00;21.93;;;;;;;9.78;100.00;96702.13;5078883;28;20193;-94
2020/12/05 11:39:26;;;;;;;37.00;25.57;;;;;;;9.86;100.00;96704.03;5079824;28;20255;-95
2020/12/05 11:41:53;;;;;;;38.27;26.43;;;;;;;9.87;100.00;96708.31;5078606;28;20209;-95